createdAt,value
2022-12-28T00:02:25.469Z,70.19
2022-12-28T00:04:55.120Z,70.21
2022-12-28T00:07:25.082Z,70.27
2022-12-28T00:09:54.799Z,70.34
2022-12-28T00:12:24.767Z,70.29
2022-12-28T00:14:56.727Z,70.35
2022-12-28T00:17:26.426Z,70.30
2022-12-28T00:19:57.432Z,70.47
2022-12-28T00:22:28.419Z,70.62
2022-12-28T00:24:58.117Z,70.56
2022-12-28T00:27:27.643Z,70.72
2022-12-28T00:29:57.197Z,70.77
2022-12-28T00:32:30.117Z,70.81
2022-12-28T00:34:59.790Z,70.87
2022-12-28T00:37:29.992Z,70.72
2022-12-28T00:39:59.864Z,70.59
2022-12-28T00:42:29.595Z,70.47
2022-12-28T00:44:59.644Z,70.32
2022-12-28T00:47:29.331Z,70.23
2022-12-28T00:49:59.097Z,70.26
2022-12-28T00:52:28.982Z,70.26
2022-12-28T00:54:58.891Z,70.25
2022-12-28T00:57:28.457Z,70.19
2022-12-28T00:59:58.167Z,70.24
2022-12-28T01:02:27.459Z,70.29
2022-12-28T01:04:56.747Z,70.38
2022-12-28T01:07:25.922Z,70.34
2022-12-28T01:09:55.116Z,70.31
2022-12-28T01:12:24.351Z,70.51
2022-12-28T01:14:53.848Z,70.55
2022-12-28T01:17:23.661Z,70.72
2022-12-28T01:19:55.539Z,70.67
2022-12-28T01:22:25.097Z,70.70
2022-12-28T01:24:55.243Z,70.79
2022-12-28T01:27:25.460Z,70.89
2022-12-28T01:29:54.888Z,70.89
2022-12-28T01:32:26.275Z,70.66
2022-12-28T01:34:56.045Z,70.72
2022-12-28T01:37:25.747Z,70.79
2022-12-28T01:39:55.415Z,70.94
2022-12-28T01:42:27.128Z,70.99
2022-12-28T01:44:56.827Z,70.98
2022-12-28T01:47:35.243Z,71.08
2022-12-28T01:50:15.905Z,71.14
2022-12-28T01:53:01.804Z,71.18
2022-12-28T01:55:36.074Z,71.33
2022-12-28T01:58:16.769Z,71.31
2022-12-28T02:00:46.898Z,71.27
2022-12-28T02:03:26.364Z,71.21
2022-12-28T02:06:02.444Z,71.15
2022-12-28T02:08:47.053Z,71.18
2022-12-28T02:11:19.341Z,71.27
2022-12-28T02:13:51.665Z,71.37
2022-12-28T02:16:24.742Z,71.52
2022-12-28T02:18:55.191Z,71.69
2022-12-28T02:21:44.173Z,71.77
2022-12-28T02:25:12.300Z,71.81
2022-12-28T02:28:29.173Z,71.96
2022-12-28T02:31:12.026Z,72.02
2022-12-28T02:34:05.029Z,72.02
2022-12-28T02:36:42.928Z,72.08
2022-12-28T02:39:25.526Z,72.13
2022-12-28T02:41:56.665Z,72.09
2022-12-28T02:44:44.699Z,72.15
2022-12-28T02:47:35.872Z,72.24
2022-12-28T02:50:09.384Z,72.26
2022-12-28T02:52:44.392Z,72.25
2022-12-28T02:56:08.745Z,72.25
2022-12-28T02:59:06.034Z,72.48
2022-12-28T03:01:54.486Z,72.69
2022-12-28T03:04:40.885Z,72.70
2022-12-28T03:07:38.605Z,72.65
2022-12-28T03:10:21.431Z,72.76
2022-12-28T03:13:01.795Z,72.74
2022-12-28T03:15:38.383Z,72.76
2022-12-28T03:18:38.639Z,72.91
2022-12-28T03:21:30.084Z,72.92
2022-12-28T03:24:20.143Z,72.90
2022-12-28T03:27:12.204Z,72.96
2022-12-28T03:30:17.464Z,73.00
2022-12-28T03:32:48.623Z,72.97
2022-12-28T03:35:20.863Z,72.99
2022-12-28T03:37:58.673Z,72.94
2022-12-28T03:40:47.842Z,73.09
2022-12-28T03:43:44.301Z,73.15
2022-12-28T03:46:32.077Z,73.03
2022-12-28T03:49:02.868Z,73.13
2022-12-28T03:51:34.734Z,73.20
2022-12-28T03:54:19.092Z,73.24
2022-12-28T03:56:51.908Z,73.12
2022-12-28T03:59:23.567Z,73.06
2022-12-28T04:01:54.324Z,73.07
2022-12-28T04:04:23.687Z,73.04
2022-12-28T04:06:53.383Z,72.98
2022-12-28T04:09:23.136Z,73.02
2022-12-28T04:11:52.525Z,72.98
2022-12-28T04:14:28.022Z,72.99
2022-12-28T04:16:57.475Z,73.04
2022-12-28T04:19:28.084Z,73.03
2022-12-28T04:21:57.328Z,72.99
2022-12-28T04:24:26.626Z,73.11
2022-12-28T04:26:56.138Z,73.12
2022-12-28T04:29:25.443Z,73.06
2022-12-28T04:32:05.449Z,73.17
2022-12-28T04:34:34.689Z,73.22
2022-12-28T04:37:10.884Z,73.25
2022-12-28T04:39:55.824Z,73.31
2022-12-28T04:42:26.708Z,73.27
2022-12-28T04:44:55.779Z,73.24
2022-12-28T04:47:24.919Z,73.35
2022-12-28T04:49:54.096Z,73.54
2022-12-28T04:52:23.475Z,73.62
2022-12-28T04:54:52.898Z,73.71
2022-12-28T04:57:22.000Z,73.74
2022-12-28T04:59:51.134Z,73.59
2022-12-28T05:02:20.467Z,73.69
2022-12-28T05:04:49.808Z,73.79
2022-12-28T05:07:18.946Z,73.88
2022-12-28T05:09:48.139Z,73.98
2022-12-28T05:12:17.214Z,74.10
2022-12-28T05:14:46.374Z,74.16
2022-12-28T05:17:15.889Z,74.22
2022-12-28T05:19:45.007Z,74.28
2022-12-28T05:22:15.726Z,74.35
2022-12-28T05:24:46.630Z,74.31
2022-12-28T05:27:15.901Z,74.46
2022-12-28T05:29:45.186Z,74.48
2022-12-28T05:32:17.441Z,74.48
2022-12-28T05:34:48.115Z,74.62
2022-12-28T05:37:22.337Z,74.70
2022-12-28T05:39:51.930Z,74.87
2022-12-28T05:42:21.142Z,74.87
2022-12-28T05:44:53.054Z,74.76
2022-12-28T05:47:22.611Z,74.76
2022-12-28T05:49:52.139Z,74.65
2022-12-28T05:52:21.702Z,74.60
2022-12-28T05:54:51.040Z,74.52
2022-12-28T05:57:20.399Z,74.59
2022-12-28T05:59:49.490Z,74.55
2022-12-28T06:02:24.413Z,74.52
2022-12-28T06:04:54.898Z,74.47
2022-12-28T06:07:24.007Z,74.46
2022-12-28T06:09:53.069Z,74.50
2022-12-28T06:12:22.261Z,74.47
2022-12-28T06:14:51.269Z,74.45
2022-12-28T06:17:20.262Z,74.44
2022-12-28T06:19:49.519Z,74.44
2022-12-28T06:22:18.790Z,74.46
2022-12-28T06:24:47.976Z,74.27
2022-12-28T06:27:17.281Z,74.28
2022-12-28T06:29:46.501Z,74.27
2022-12-28T06:32:15.574Z,74.32
2022-12-28T06:34:44.788Z,74.34
2022-12-28T06:37:16.654Z,74.32
2022-12-28T06:39:47.948Z,74.46
2022-12-28T06:42:17.119Z,74.51
2022-12-28T06:44:49.340Z,74.58
2022-12-28T06:47:18.546Z,74.68
2022-12-28T06:49:48.556Z,74.77
2022-12-28T06:52:18.054Z,74.78
2022-12-28T06:54:47.608Z,74.82
2022-12-28T06:57:17.175Z,74.77
2022-12-28T06:59:47.425Z,74.80
2022-12-28T07:02:17.215Z,74.91
2022-12-28T07:04:46.952Z,74.98
2022-12-28T07:07:16.741Z,75.01
2022-12-28T07:09:46.436Z,74.79
2022-12-28T07:12:15.761Z,74.73
2022-12-28T07:14:45.141Z,74.82
2022-12-28T07:17:15.050Z,74.78
2022-12-28T07:19:44.784Z,74.81
2022-12-28T07:22:16.769Z,74.79
2022-12-28T07:24:50.624Z,74.78
2022-12-28T07:27:20.430Z,74.82
2022-12-28T07:29:49.789Z,75.02
2022-12-28T07:32:18.920Z,75.04
2022-12-28T07:34:48.161Z,74.91
2022-12-28T07:37:17.285Z,74.92
2022-12-28T07:39:46.410Z,75.07
2022-12-28T07:42:15.562Z,74.98
2022-12-28T07:44:49.046Z,75.01
2022-12-28T07:47:18.732Z,75.17
2022-12-28T07:49:47.915Z,75.26
2022-12-28T07:52:17.175Z,75.36
2022-12-28T07:54:46.460Z,75.49
2022-12-28T07:57:15.917Z,75.43
2022-12-28T07:59:45.003Z,75.39
2022-12-28T08:02:14.500Z,75.39
2022-12-28T08:04:51.993Z,75.39
2022-12-28T08:07:22.132Z,75.17
2022-12-28T08:09:51.568Z,75.10
2022-12-28T08:12:21.502Z,74.95
2022-12-28T08:14:50.632Z,74.78
2022-12-28T08:17:21.345Z,74.72
2022-12-28T08:19:51.330Z,74.67
2022-12-28T08:22:22.702Z,74.46
2022-12-28T08:24:55.904Z,74.28
2022-12-28T08:27:25.593Z,74.19
2022-12-28T08:29:54.911Z,74.07
2022-12-28T08:32:24.350Z,73.67
2022-12-28T08:34:53.702Z,73.64
2022-12-28T08:37:23.487Z,73.53
2022-12-28T08:39:52.906Z,73.44
2022-12-28T08:42:22.269Z,73.12
2022-12-28T08:44:51.765Z,72.80
2022-12-28T08:47:21.400Z,72.81
2022-12-28T08:49:50.796Z,72.71
2022-12-28T08:52:20.017Z,72.13
2022-12-28T08:54:49.371Z,71.80
2022-12-28T08:57:18.621Z,71.71
2022-12-28T08:59:48.907Z,71.61
2022-12-28T09:02:18.335Z,71.67
2022-12-28T09:04:47.619Z,71.29
2022-12-28T09:07:17.118Z,71.07
2022-12-28T09:09:46.367Z,70.92
2022-12-28T09:12:15.519Z,70.91
2022-12-28T09:14:45.067Z,70.55
2022-12-28T09:17:14.947Z,70.61
2022-12-28T09:19:45.791Z,70.68
2022-12-28T09:22:15.523Z,70.88
2022-12-28T09:24:44.997Z,71.18
2022-12-28T09:27:14.589Z,70.76
2022-12-28T09:29:43.858Z,70.69
2022-12-28T09:32:13.611Z,70.51
2022-12-28T09:34:45.966Z,70.33
2022-12-28T09:37:15.457Z,69.90
2022-12-28T09:39:45.194Z,69.07
2022-12-28T09:42:25.462Z,68.76
2022-12-28T09:45:12.648Z,69.24
2022-12-28T09:47:52.098Z,68.53
2022-12-28T09:50:35.151Z,68.33
2022-12-28T09:53:36.723Z,68.40
2022-12-28T09:56:34.401Z,68.39
2022-12-28T09:59:07.468Z,68.17
2022-12-28T10:01:42.049Z,68.37
2022-12-28T10:04:13.812Z,68.21
2022-12-28T10:06:45.148Z,68.11
2022-12-28T10:09:29.295Z,67.94
2022-12-28T10:12:01.443Z,67.87
2022-12-28T10:14:35.763Z,67.96
2022-12-28T10:17:07.442Z,67.94
2022-12-28T10:19:36.554Z,67.89
2022-12-28T10:22:10.955Z,67.73
2022-12-28T10:24:40.976Z,67.45
2022-12-28T10:27:29.851Z,67.43
2022-12-28T10:30:02.820Z,67.05
2022-12-28T10:32:56.716Z,67.39
2022-12-28T10:35:56.708Z,67.58
2022-12-28T10:38:55.793Z,67.22
2022-12-28T10:41:40.974Z,66.80
2022-12-28T10:44:39.322Z,66.80
2022-12-28T10:47:46.015Z,66.84
2022-12-28T10:51:15.795Z,66.56
2022-12-28T10:54:01.235Z,66.29
2022-12-28T10:56:44.493Z,66.49
2022-12-28T10:59:13.774Z,66.34
2022-12-28T11:01:45.525Z,66.12
2022-12-28T11:04:24.434Z,65.02
2022-12-28T11:07:02.869Z,63.90
2022-12-28T11:09:36.543Z,63.47
2022-12-28T11:12:29.119Z,63.33
2022-12-28T11:15:01.675Z,63.37
2022-12-28T11:17:40.047Z,63.61
2022-12-28T11:20:22.140Z,63.65
2022-12-28T11:22:55.304Z,63.87
2022-12-28T11:25:35.522Z,63.50
2022-12-28T11:28:24.291Z,63.62
2022-12-28T11:30:57.491Z,63.59
2022-12-28T11:33:45.155Z,63.53
2022-12-28T11:36:27.244Z,63.55
2022-12-28T11:39:25.793Z,63.23
2022-12-28T11:44:54.346Z,63.19
2022-12-28T11:47:39.388Z,63.03
2022-12-28T11:50:37.065Z,62.84
2022-12-28T11:53:33.755Z,62.95
2022-12-28T11:56:10.080Z,62.78
2022-12-28T11:58:42.496Z,62.69
2022-12-28T12:01:35.634Z,62.58
2022-12-28T12:04:04.871Z,62.60
2022-12-28T12:06:48.168Z,63.11
2022-12-28T12:09:21.976Z,63.14
2022-12-28T12:12:25.064Z,62.84
2022-12-28T12:15:43.037Z,62.85
2022-12-28T12:18:24.067Z,62.55
2022-12-28T12:21:10.248Z,62.41
2022-12-28T12:23:56.668Z,62.31
2022-12-28T12:26:45.598Z,62.09
2022-12-28T12:29:48.111Z,61.99
2022-12-28T12:32:30.812Z,62.04
2022-12-28T12:35:12.346Z,61.88
2022-12-28T12:38:37.302Z,61.79
2022-12-28T12:41:46.312Z,61.76
2022-12-28T12:45:07.984Z,61.37
2022-12-28T12:48:36.976Z,61.44
2022-12-28T12:51:51.591Z,61.53
2022-12-28T12:55:11.846Z,61.62
2022-12-28T12:58:05.816Z,61.60
2022-12-28T13:01:07.371Z,61.52
2022-12-28T13:03:52.849Z,61.39
2022-12-28T13:06:30.454Z,61.55
2022-12-28T13:09:05.936Z,61.34
2022-12-28T13:11:39.482Z,61.31
2022-12-28T13:14:37.987Z,61.19
2022-12-28T13:17:32.475Z,60.91
2022-12-28T13:20:26.158Z,60.98
2022-12-28T13:22:59.587Z,61.19
2022-12-28T13:25:35.292Z,60.96
2022-12-28T13:28:07.132Z,60.78
2022-12-28T13:30:39.946Z,60.91
2022-12-28T13:33:22.831Z,60.73
2022-12-28T13:39:24.118Z,60.66
2022-12-28T13:42:17.181Z,60.53
2022-12-28T13:44:58.544Z,60.56
2022-12-28T13:47:43.897Z,60.58
2022-12-28T13:50:30.711Z,60.85
2022-12-28T13:53:25.864Z,60.96
2022-12-28T13:56:06.120Z,60.75
2022-12-28T13:58:42.895Z,60.72
2022-12-28T14:01:20.303Z,60.81
2022-12-28T14:04:33.703Z,60.92
2022-12-28T14:06:51.566Z,60.84
2022-12-28T14:09:24.460Z,60.93
2022-12-28T14:11:57.540Z,60.91
2022-12-28T14:14:29.203Z,60.84
2022-12-28T14:17:03.183Z,60.83
2022-12-28T14:19:36.069Z,60.89
2022-12-28T14:22:37.157Z,60.91
2022-12-28T14:25:17.546Z,60.99
2022-12-28T14:28:50.237Z,61.04
2022-12-28T14:32:06.844Z,61.19
2022-12-28T14:34:39.151Z,61.29
2022-12-28T14:37:27.089Z,61.41
2022-12-28T14:40:07.359Z,61.52
2022-12-28T14:42:36.855Z,61.60
2022-12-28T14:46:07.576Z,61.74
2022-12-28T14:51:33.513Z,61.73
2022-12-28T14:54:43.592Z,61.64
2022-12-28T14:57:44.423Z,61.63
2022-12-28T15:00:27.131Z,61.71
2022-12-28T15:03:11.760Z,61.80
2022-12-28T15:05:54.824Z,61.87
2022-12-28T15:08:27.706Z,61.86
2022-12-28T15:11:00.898Z,61.99
2022-12-28T15:13:35.729Z,62.21
2022-12-28T15:16:06.817Z,62.24
2022-12-28T15:18:45.025Z,62.12
2022-12-28T15:21:24.894Z,62.13
2022-12-28T15:23:58.304Z,62.21
2022-12-28T15:26:28.165Z,62.19
2022-12-28T15:28:57.721Z,62.10
2022-12-28T15:31:27.229Z,62.07
2022-12-28T15:33:58.914Z,62.13
2022-12-28T15:36:28.897Z,62.22
2022-12-28T15:38:59.678Z,62.32
2022-12-28T15:41:47.713Z,62.26
2022-12-28T15:44:23.438Z,62.34
2022-12-28T15:46:53.811Z,62.43
2022-12-28T15:49:33.984Z,62.44
2022-12-28T15:52:05.835Z,62.43
2022-12-28T15:54:36.865Z,62.43
2022-12-28T15:57:17.039Z,62.55
2022-12-28T15:59:47.376Z,62.55
2022-12-28T16:02:17.910Z,62.38
2022-12-28T16:04:47.911Z,62.44
2022-12-28T16:07:20.967Z,62.54
2022-12-28T16:09:54.479Z,62.62
2022-12-28T16:12:25.674Z,62.46
2022-12-28T16:15:01.581Z,62.63
2022-12-28T16:17:53.034Z,62.65
2022-12-28T16:20:32.544Z,62.73
2022-12-28T16:23:14.302Z,62.63
2022-12-28T16:26:00.096Z,62.59
2022-12-28T16:28:30.924Z,62.67
2022-12-28T16:31:01.398Z,62.63
2022-12-28T16:33:35.673Z,62.72
2022-12-28T16:36:21.686Z,62.78
2022-12-28T16:38:59.378Z,62.84
2022-12-28T16:41:36.358Z,62.73
2022-12-28T16:44:21.974Z,62.64
2022-12-28T16:46:58.436Z,62.64
2022-12-28T16:49:35.246Z,62.70
2022-12-28T16:52:10.733Z,62.54
2022-12-28T16:54:43.772Z,62.62
2022-12-28T16:57:15.491Z,62.78
2022-12-28T16:59:47.352Z,62.76
2022-12-28T17:02:17.640Z,62.64
2022-12-28T17:04:53.733Z,62.63
2022-12-28T17:07:31.180Z,62.86
2022-12-28T17:10:01.000Z,62.90
2022-12-28T17:12:30.823Z,62.92
2022-12-28T17:15:04.837Z,62.89
2022-12-28T17:17:37.951Z,63.01
2022-12-28T17:20:08.700Z,63.11
2022-12-28T17:22:39.880Z,63.28
2022-12-28T17:25:09.877Z,63.30
2022-12-28T17:27:42.238Z,63.31
2022-12-28T17:30:14.908Z,63.32
2022-12-28T17:32:44.876Z,63.39
2022-12-28T17:35:16.684Z,63.38
2022-12-28T17:37:49.661Z,63.52
2022-12-28T17:40:20.820Z,63.65
2022-12-28T17:42:50.185Z,63.58
2022-12-28T17:45:19.967Z,63.48
2022-12-28T17:47:49.224Z,63.33
2022-12-28T17:50:20.157Z,63.34
2022-12-28T17:52:52.021Z,63.29
2022-12-28T17:55:21.426Z,63.43
2022-12-28T17:57:51.002Z,63.44
2022-12-28T18:00:21.229Z,63.27
2022-12-28T18:02:50.745Z,63.30
2022-12-28T18:05:20.141Z,63.27
2022-12-28T18:07:49.504Z,63.25
2022-12-28T18:10:18.609Z,63.30
2022-12-28T18:12:47.835Z,63.24
2022-12-28T18:15:18.463Z,63.23
2022-12-28T18:17:48.377Z,63.01
2022-12-28T18:20:17.724Z,63.01
2022-12-28T18:22:46.946Z,63.10
2022-12-28T18:25:19.983Z,62.85
2022-12-28T18:27:52.805Z,62.77
2022-12-28T18:30:22.420Z,62.91
2022-12-28T18:32:52.800Z,62.89
2022-12-28T18:35:25.675Z,62.88
2022-12-28T18:38:01.747Z,62.90
2022-12-28T18:40:31.048Z,62.94
2022-12-28T18:43:05.375Z,62.97
2022-12-28T18:45:37.291Z,62.86
2022-12-28T18:48:11.480Z,62.66
2022-12-28T18:50:43.522Z,62.83
2022-12-28T18:53:16.284Z,62.65
2022-12-28T18:56:01.704Z,62.84
2022-12-28T18:58:39.502Z,62.77
2022-12-28T19:04:08.126Z,62.73
2022-12-28T19:06:42.926Z,62.74
2022-12-28T19:09:21.968Z,62.91
2022-12-28T19:11:58.284Z,62.94
2022-12-28T19:14:31.364Z,62.73
2022-12-28T19:17:01.310Z,62.47
2022-12-28T19:19:43.198Z,62.47
2022-12-28T19:22:22.698Z,62.26
2022-12-28T19:24:53.546Z,62.35
2022-12-28T19:27:22.996Z,62.28
2022-12-28T19:29:55.529Z,62.21
2022-12-28T19:32:26.504Z,62.25
2022-12-28T19:35:02.737Z,62.19
2022-12-28T19:37:32.646Z,62.27
2022-12-28T19:40:06.480Z,62.32
2022-12-28T19:42:36.395Z,62.32
2022-12-28T19:45:15.269Z,62.28
2022-12-28T19:47:46.110Z,62.28
2022-12-28T19:50:21.298Z,62.20
2022-12-28T19:52:56.388Z,62.25
2022-12-28T19:55:35.308Z,62.33
2022-12-28T19:58:19.872Z,62.15
2022-12-28T20:00:53.820Z,62.41
2022-12-28T20:03:42.556Z,62.53
2022-12-28T20:06:30.060Z,62.60
2022-12-28T20:09:01.928Z,62.65
2022-12-28T20:11:37.092Z,62.82
2022-12-28T20:14:19.118Z,62.63
2022-12-28T20:16:58.615Z,62.79
2022-12-28T20:22:42.274Z,63.12
2022-12-28T20:25:18.643Z,63.16
2022-12-28T20:27:58.746Z,63.12
2022-12-28T20:30:33.357Z,63.12
2022-12-28T20:33:09.317Z,63.26
2022-12-28T20:35:42.744Z,63.22
2022-12-28T20:38:15.687Z,63.19
2022-12-28T20:40:46.973Z,63.31
2022-12-28T20:43:25.075Z,63.28
2022-12-28T20:45:58.878Z,63.35
2022-12-28T20:48:34.397Z,63.26
2022-12-28T20:51:03.923Z,63.26
2022-12-28T20:53:40.477Z,63.27
2022-12-28T20:56:14.957Z,63.34
2022-12-28T20:58:44.842Z,63.38
2022-12-28T21:01:17.479Z,63.43
2022-12-28T21:03:50.933Z,63.40
2022-12-28T21:06:20.592Z,63.43
2022-12-28T21:08:53.245Z,63.47
2022-12-28T21:11:35.031Z,63.42
2022-12-28T21:14:04.686Z,63.48
2022-12-28T21:17:21.347Z,63.45
2022-12-28T21:20:15.647Z,63.58
2022-12-28T21:22:45.251Z,63.66
2022-12-28T21:25:15.011Z,63.89
2022-12-28T21:27:44.727Z,63.95
2022-12-28T21:30:14.308Z,63.98
2022-12-28T21:32:43.655Z,64.02
2022-12-28T21:35:13.019Z,63.90
2022-12-28T21:37:42.459Z,63.85
2022-12-28T21:40:13.715Z,64.08
2022-12-28T21:42:45.886Z,64.17
2022-12-28T21:45:15.623Z,64.40
2022-12-28T21:47:48.012Z,64.49
2022-12-28T21:50:41.293Z,64.57
2022-12-28T21:56:42.915Z,64.77
2022-12-28T21:59:27.681Z,64.76
2022-12-28T22:02:20.120Z,64.81
2022-12-28T22:05:12.341Z,64.97
2022-12-28T22:07:41.592Z,64.96
2022-12-28T22:10:37.740Z,65.05
2022-12-28T22:13:07.403Z,65.05
2022-12-28T22:15:52.240Z,65.01
2022-12-28T22:18:44.869Z,65.08
2022-12-28T22:21:14.289Z,65.08
2022-12-28T22:23:43.587Z,65.12
2022-12-28T22:26:12.968Z,64.98
2022-12-28T22:28:42.175Z,65.08
2022-12-28T22:31:11.922Z,65.15
2022-12-28T22:33:41.014Z,64.92
2022-12-28T22:36:17.161Z,64.91
2022-12-28T22:38:47.046Z,64.90
2022-12-28T22:41:16.361Z,64.95
2022-12-28T22:43:51.841Z,64.93
2022-12-28T22:46:21.791Z,64.95
2022-12-28T22:48:51.131Z,64.85
2022-12-28T22:51:20.266Z,64.90
2022-12-28T22:53:50.121Z,64.86
2022-12-28T22:56:22.471Z,64.91
2022-12-28T22:58:51.881Z,64.78
2022-12-28T23:01:21.639Z,64.92
2022-12-28T23:03:51.954Z,64.76
2022-12-28T23:06:27.422Z,64.75
2022-12-28T23:09:00.185Z,64.79
2022-12-28T23:11:39.683Z,64.84
2022-12-28T23:14:42.544Z,64.84
2022-12-28T23:20:31.796Z,64.72
2022-12-28T23:23:19.847Z,64.73
2022-12-28T23:26:24.160Z,64.72
2022-12-28T23:28:53.363Z,64.77
2022-12-28T23:31:25.209Z,64.72
2022-12-28T23:33:55.337Z,64.67
2022-12-28T23:36:24.601Z,64.47
2022-12-28T23:38:54.064Z,64.38
2022-12-28T23:41:41.666Z,64.39
2022-12-28T23:44:10.812Z,64.33
2022-12-28T23:46:40.322Z,64.22
2022-12-28T23:49:09.942Z,64.21
2022-12-28T23:51:39.076Z,64.23
2022-12-28T23:54:09.880Z,64.03
2022-12-28T23:56:41.419Z,64.00
2022-12-28T23:59:10.959Z,64.14
